Time;durP1;ratioP1;P1;durP2;ratioP2;P2;SDS_P1;SDS_P2;PMS_P1;PMS_P2;Temp;Humidity;BMP_temperature;BMP_pressure;BME280_temperature;BME280_humidity;BME280_pressure;Samples;Min_cycle;Max_cycle;Signal;HPM_P1;HPM_P2
2022/12/30 00:02:04;;;;;;;;;;;8.70;99.90;;;7.70;100.00;95509.13;10482582;28;2416;-73
2022/12/30 00:07:07;;;;;;;;;;;8.70;99.90;;;7.90;100.00;95511.88;10491855;28;2379;-74
2022/12/30 00:33:32;;;;;;;;;;;8.90;99.90;;;8.00;100.00;95567.31;10478232;28;2270;-72
2022/12/30 00:38:34;;;;;;;;;;;9.00;99.90;;;7.90;100.00;95576.13;10477787;28;2264;-74
2022/12/30 00:43:37;;;;;;;;;;;8.90;99.90;;;7.83;100.00;95626.41;10481388;28;5164;-74
2022/12/30 00:59:20;;;;;;;;;;;7.50;99.90;;;5.75;100.00;95665.22;10478990;28;2393;-73
2022/12/30 01:04:23;;;;;;;;;;;7.00;99.90;;;5.51;100.00;95686.72;10475076;28;2396;-73
2022/12/30 01:09:28;;;;;;;;;;;6.70;99.90;;;5.28;100.00;95687.72;10477047;28;2288;-74
2022/12/30 01:14:30;;;;;;;;;;;6.50;99.90;;;5.23;100.00;95703.63;10478514;28;2340;-73
2022/12/30 01:19:34;;;;;;;;;;;6.40;99.90;;;5.15;100.00;95709.34;10477242;28;2560;-72
2022/12/30 01:24:37;;;;;;;;;;;6.30;99.90;;;5.13;100.00;95712.25;10479565;28;2660;-73
2022/12/30 01:29:40;;;;;;;;;;;6.20;99.90;;;5.14;100.00;95723.72;10461014;28;2503;-74
2022/12/30 01:34:43;;;;;;;;;;;6.20;99.90;;;5.13;100.00;95730.09;10476147;28;2340;-77
2022/12/30 01:39:45;;;;;;;;;;;6.10;99.90;;;5.11;100.00;95740.19;10473556;28;2284;-73
2022/12/30 01:44:48;;;;;;;;;;;6.10;99.90;;;5.04;100.00;95740.34;10473069;28;5138;-73
2022/12/30 01:49:51;;;;;;;;;;;6.10;99.90;;;5.06;100.00;95740.91;10475846;28;2414;-72
2022/12/30 01:54:53;;;;;;;;;;;6.10;99.90;;;5.02;100.00;95736.28;10470294;28;2301;-72
2022/12/30 01:59:56;;;;;;;;;;;6.10;99.90;;;5.04;100.00;95747.53;10476493;28;2401;-73
2022/12/30 02:04:59;;;;;;;;;;;6.10;99.90;;;5.03;100.00;95737.91;10473820;28;2340;-72
2022/12/30 02:10:01;;;;;;;;;;;6.10;99.90;;;5.06;100.00;95748.09;10469891;28;2370;-72
2022/12/30 02:15:04;;;;;;;;;;;6.10;99.90;;;5.05;100.00;95749.13;10474151;28;2363;-73
2022/12/30 02:20:08;;;;;;;;;;;6.10;99.90;;;5.00;100.00;95738.38;10473591;28;2278;-73
2022/12/30 02:25:11;;;;;;;;;;;6.10;99.90;;;5.02;100.00;95752.25;10479380;28;2400;-73
2022/12/30 02:30:13;;;;;;;;;;;6.10;99.90;;;5.06;100.00;95753.41;10482284;28;2455;-73
2022/12/30 02:35:16;;;;;;;;;;;6.10;99.90;;;5.06;100.00;95753.41;10478017;28;2285;-73
2022/12/30 02:40:19;;;;;;;;;;;6.00;99.90;;;5.09;100.00;95758.25;10481709;28;5049;-74
2022/12/30 02:45:22;;;;;;;;;;;6.10;99.90;;;5.09;100.00;95755.59;10481075;28;2320;-72
2022/12/30 02:55:45;;;;;;;;;;;6.10;99.90;;;5.14;100.00;95761.00;10479090;28;2571;-75
2022/12/30 03:06:16;;;;;;;;;;;6.20;99.90;;;5.11;100.00;95753.50;10445137;28;2589;-72
2022/12/30 03:11:19;;;;;;;;;;;6.20;99.90;;;5.04;100.00;95758.19;10487604;28;2275;-72
2022/12/30 03:16:21;;;;;;;;;;;6.10;99.90;;;5.01;100.00;95764.78;10485626;28;2485;-72
2022/12/30 03:21:24;;;;;;;;;;;6.10;99.90;;;4.95;100.00;95767.59;10488741;28;2463;-72
2022/12/30 03:31:47;;;;;;;;;;;6.00;99.90;;;4.92;100.00;95773.41;10474405;28;2359;-72
2022/12/30 03:36:50;;;;;;;;;;;6.00;99.90;;;4.91;100.00;95777.13;10488437;28;2333;-72
2022/12/30 03:41:53;;;;;;;;;;;6.00;99.90;;;4.86;100.00;95786.63;10481625;28;4967;-72
2022/12/30 03:46:55;;;;;;;;;;;5.90;99.90;;;4.87;100.00;95782.91;10478069;28;2417;-72
2022/12/30 03:51:58;;;;;;;;;;;5.90;99.90;;;4.86;100.00;95775.97;10484407;28;2377;-71
2022/12/30 03:57:06;;;;;;;;;;;5.90;99.90;;;4.87;100.00;95776.78;10480242;28;2335;-72
2022/12/30 04:02:09;;;;;;;;;;;5.90;99.90;;;4.84;100.00;95780.72;10478180;28;2368;-72
2022/12/30 04:07:12;;;;;;;;;;;5.90;99.90;;;4.80;100.00;95782.25;10471714;28;2325;-73
2022/12/30 04:12:15;;;;;;;;;;;5.90;99.90;;;4.82;100.00;95779.34;10482575;28;1952;-72
2022/12/30 04:17:17;;;;;;;;;;;5.90;99.90;;;4.77;100.00;95785.38;10485557;28;2360;-72
2022/12/30 04:22:20;;;;;;;;;;;5.80;99.90;;;4.79;100.00;95785.94;10473861;28;2420;-72
2022/12/30 04:27:23;;;;;;;;;;;5.90;99.90;;;4.79;100.00;95775.31;10482672;28;2298;-72
2022/12/30 04:32:25;;;;;;;;;;;5.80;99.90;;;4.74;100.00;95777.06;10461825;28;2337;-72
2022/12/30 04:37:28;;;;;;;;;;;5.80;99.90;;;4.76;100.00;95775.75;10477093;28;2368;-72
2022/12/30 04:42:30;;;;;;;;;;;5.80;99.90;;;4.71;100.00;95770.34;10474786;28;5096;-72
2022/12/30 04:47:33;;;;;;;;;;;5.80;99.90;;;4.70;100.00;95767.91;10475197;28;2365;-74
2022/12/30 04:52:36;;;;;;;;;;;5.80;99.90;;;4.72;100.00;95761.31;10478064;28;2358;-73
2022/12/30 04:57:38;;;;;;;;;;;5.80;99.90;;;4.75;100.00;95763.50;10485273;28;2479;-73
2022/12/30 05:02:41;;;;;;;;;;;5.80;99.90;;;4.78;100.00;95757.72;10474895;28;2713;-73
2022/12/30 05:07:44;;;;;;;;;;;5.80;99.90;;;4.73;100.00;95754.94;10469154;28;2284;-72
2022/12/30 05:12:47;;;;;;;;;;;5.80;99.90;;;4.74;100.00;95764.53;10479468;28;2290;-73
2022/12/30 05:17:49;;;;;;;;;;;5.80;99.90;;;4.75;100.00;95774.16;10472519;28;2484;-73
2022/12/30 05:22:52;;;;;;;;;;;5.70;99.90;;;4.69;100.00;95777.75;10477038;28;2338;-73
2022/12/30 05:27:54;;;;;;;;;;;5.70;99.90;;;4.67;100.00;95787.84;10477478;28;2283;-75
2022/12/30 05:32:57;;;;;;;;;;;5.70;99.90;;;4.62;100.00;95777.09;10474294;28;2329;-73
2022/12/30 05:38:00;;;;;;;;;;;5.70;99.90;;;4.57;100.00;95771.66;10474979;28;2311;-71
2022/12/30 05:43:02;;;;;;;;;;;5.60;99.90;;;4.55;100.00;95773.75;10481046;28;4998;-72
2022/12/30 05:48:05;;;;;;;;;;;5.60;99.90;;;4.52;100.00;95784.88;10479524;28;2065;-73
2022/12/30 05:53:08;;;;;;;;;;;5.60;99.90;;;4.48;100.00;95783.72;10486375;28;2425;-71
2022/12/30 05:58:10;;;;;;;;;;;5.60;99.90;;;4.52;100.00;95779.56;10480663;28;2329;-72
2022/12/30 06:03:13;;;;;;;;;;;5.60;99.90;;;4.56;100.00;95772.69;10480805;28;2363;-71
2022/12/30 06:08:16;;;;;;;;;;;5.60;99.90;;;4.54;100.00;95772.94;10492313;28;2226;-72
2022/12/30 06:13:18;;;;;;;;;;;5.60;99.90;;;4.46;100.00;95760.00;10489558;28;2325;-71
2022/12/30 06:18:21;;;;;;;;;;;5.60;99.90;;;4.31;100.00;95744.50;10482825;28;2544;-72
2022/12/30 06:23:24;;;;;;;;;;;5.50;99.90;;;4.26;100.00;95748.91;10486577;28;2417;-71
2022/12/30 06:28:26;;;;;;;;;;;5.40;99.90;;;4.25;100.00;95757.94;10494107;28;2409;-77
2022/12/30 06:33:29;;;;;;;;;;;5.40;99.90;;;4.13;100.00;95773.91;10487808;28;2263;-77
2022/12/30 06:38:32;;;;;;;;;;;5.40;99.90;;;4.16;100.00;95773.47;10482567;28;2207;-74
2022/12/30 06:43:35;;;;;;;;;;;5.30;99.90;;;4.22;100.00;95780.53;10475669;28;4850;-71
2022/12/30 06:48:38;;;;;;;;;;;5.30;99.90;;;4.23;100.00;95787.47;10482075;28;2357;-72
2022/12/30 06:53:40;;;;;;;;;;;5.30;99.90;;;4.23;100.00;95791.97;10488794;28;2465;-72
2022/12/30 06:58:43;;;;;;;;;;;5.30;99.90;;;4.00;100.00;95796.25;10479153;28;2317;-72
2022/12/30 07:03:46;;;;;;;;;;;;;;;3.86;100.00;95788.75;10482975;28;2359;-74
2022/12/30 07:08:50;;;;;;;;;;;;;;;3.71;100.00;95783.88;10487205;28;2524;-73
2022/12/30 07:13:53;;;;;;;;;;;;;;;3.63;100.00;95781.56;10482071;28;2429;-74
2022/12/30 07:18:56;;;;;;;;;;;;;;;3.63;100.00;95790.34;10487036;28;2421;-74
2022/12/30 07:23:59;;;;;;;;;;;;;;;3.59;100.00;95780.41;10478867;28;2753;-75
2022/12/30 07:29:02;;;;;;;;;;;4.80;99.90;;;3.59;100.00;95781.22;10479125;28;2479;-75
2022/12/30 07:34:04;;;;;;;;;;;5.10;99.90;;;3.55;100.00;95789.84;10480228;28;2262;-72
2022/12/30 07:39:07;;;;;;;;;;;4.80;99.90;;;3.59;100.00;95791.84;10473157;28;2429;-72
2022/12/30 07:44:10;;;;;;;;;;;4.70;99.90;;;3.57;100.00;95788.59;10474735;28;4345;-70
2022/12/30 07:49:13;;;;;;;;;;;4.80;99.90;;;3.62;100.00;95786.06;10487055;28;2267;-71
2022/12/30 07:54:16;;;;;;;;;;;4.80;99.90;;;3.61;100.00;95783.63;10485779;28;2386;-71
2022/12/30 07:59:19;;;;;;;;;;;4.80;99.90;;;3.59;100.00;95786.53;10484582;28;2446;-73
2022/12/30 08:04:21;;;;;;;;;;;4.70;99.90;;;3.59;100.00;95797.16;10484216;28;2395;-73
2022/12/30 08:09:44;;;;;;;;;;;4.80;99.90;;;3.62;100.00;95802.00;10484863;28;2351;-71
2022/12/30 08:14:47;;;;;;;;;;;4.80;99.90;;;3.63;100.00;95814.28;10482090;28;2419;-73
2022/12/30 08:19:49;;;;;;;;;;;4.80;99.90;;;3.67;100.00;95798.66;10483315;28;2708;-73
2022/12/30 08:24:52;;;;;;;;;;;4.80;99.90;;;3.89;100.00;95796.28;10482650;28;2316;-72
2022/12/30 08:29:55;;;;;;;;;;;4.90;99.90;;;3.96;100.00;95797.78;10480349;28;2345;-71
2022/12/30 08:34:57;;;;;;;;;;;5.00;99.90;;;4.12;100.00;95790.13;10480007;28;2396;-72
2022/12/30 08:40:00;;;;;;;;;;;5.10;99.90;;;4.18;100.00;95797.16;10484912;28;2438;-72
2022/12/30 08:45:03;;;;;;;;;;;5.20;99.90;;;4.18;100.00;95790.00;10474814;28;4742;-73
2022/12/30 08:50:05;;;;;;;;;;;5.30;99.90;;;4.28;100.00;95795.56;10484733;28;2357;-71
2022/12/30 08:55:08;;;;;;;;;;;5.30;99.90;;;4.39;100.00;95798.41;10483245;28;2298;-72
2022/12/30 09:00:10;;;;;;;;;;;5.40;99.90;;;4.49;100.00;95796.78;10481229;28;2568;-71
2022/12/30 09:05:13;;;;;;;;;;;5.60;99.90;;;4.61;100.00;95799.44;10487361;28;2301;-72
2022/12/30 09:10:16;;;;;;;;;;;5.60;99.90;;;4.65;100.00;95797.94;10475114;28;2354;-73
2022/12/30 09:15:18;;;;;;;;;;;6.20;99.90;;;4.70;100.00;95797.19;10492647;28;2521;-71
2022/12/30 09:20:21;;;;;;;;;;;5.70;99.90;;;4.75;100.00;95800.78;10476622;28;2418;-72
2022/12/30 09:25:25;;;;;;;;;;;5.80;99.90;;;4.95;100.00;95794.22;10479419;28;2272;-72
2022/12/30 09:30:27;;;;;;;;;;;5.90;99.90;;;5.05;100.00;95775.78;10477944;28;2470;-73
2022/12/30 09:35:30;;;;;;;;;;;6.00;99.90;;;5.16;100.00;95766.94;10482915;28;2842;-74
2022/12/30 09:40:32;;;;;;;;;;;6.20;99.90;;;5.28;100.00;95766.84;10476083;28;4524;-73
2022/12/30 09:45:40;;;;;;;;;;;6.20;99.90;;;5.45;100.00;95761.53;10481173;28;2360;-74
2022/12/30 09:50:43;;;;;;;;;;;6.40;99.90;;;5.47;100.00;95762.09;10481375;28;2383;-75
2022/12/30 09:55:45;;;;;;;;;;;6.50;99.90;;;5.61;100.00;95744.75;10481197;28;2337;-73
2022/12/30 10:00:48;;;;;;;;;;;6.50;99.90;;;5.76;100.00;95723.66;10483082;28;2456;-77
2022/12/30 10:05:51;;;;;;;;;;;6.70;99.90;;;5.98;100.00;95710.41;10480045;28;2308;-75
2022/12/30 10:10:53;;;;;;;;;;;6.80;99.90;;;6.12;100.00;95700.97;10480007;28;2329;-74
2022/12/30 10:15:56;;;;;;;;;;;7.00;99.90;;;6.29;100.00;95684.09;10477670;28;2343;-73
2022/12/30 10:21:07;;;;;;;;;;;7.20;99.90;;;6.42;100.00;95673.03;10477834;28;2355;-74
2022/12/30 10:26:09;;;;;;;;;;;7.30;99.90;;;6.57;100.00;95656.38;10462898;28;2312;-74
2022/12/30 10:31:13;;;;;;;;;;;7.50;99.90;;;6.57;100.00;95648.38;10462255;28;2319;-74
2022/12/30 10:36:16;;;;;;;;;;;7.50;99.90;;;6.59;100.00;95638.25;10465533;28;2282;-73
2022/12/30 10:41:18;;;;;;;;;;;7.70;99.90;;;6.59;100.00;95632.91;10482242;28;4270;-76
2022/12/30 10:46:34;;;;;;;;;;;7.60;99.90;;;6.73;100.00;95620.75;10490806;28;2341;-73
2022/12/30 10:51:37;;;;;;;;;;;7.70;99.90;;;6.75;100.00;95629.34;10491568;28;2355;-72
2022/12/30 10:56:40;;;;;;;;;;;7.70;99.90;;;6.78;100.00;95604.78;10487355;28;2358;-73
2022/12/30 11:01:42;;;;;;;;;;;7.90;99.90;;;6.83;100.00;95606.69;10482159;28;2535;-73
2022/12/30 11:06:45;;;;;;;;;;;7.80;99.90;;;6.94;100.00;95600.38;10493986;28;2294;-73
2022/12/30 11:17:28;;;;;;;;;;;8.00;99.90;;;6.95;100.00;95572.59;10481145;28;2306;-72
2022/12/30 11:22:31;;;;;;;;;;;8.00;99.90;;;7.11;100.00;95558.25;10481609;28;2287;-73
2022/12/30 11:27:33;;;;;;;;;;;8.20;99.90;;;7.01;100.00;95555.53;10469805;28;2621;-73
2022/12/30 11:32:36;;;;;;;;;;;8.20;99.90;;;7.09;100.00;95554.25;10488353;28;2320;-73
2022/12/30 11:37:38;;;;;;;;;;;8.20;99.90;;;7.24;100.00;95543.66;10485972;28;2403;-78
2022/12/30 11:42:41;;;;;;;;;;;8.40;99.90;;;7.21;100.00;95525.47;10485329;28;4186;-75
2022/12/30 11:47:44;;;;;;;;;;;8.10;99.90;;;7.13;100.00;95525.97;10482771;28;2343;-74
2022/12/30 11:52:46;;;;;;;;;;;8.20;99.90;;;7.26;100.00;95523.63;10487807;28;2317;-74
2022/12/30 11:57:49;;;;;;;;;;;8.20;99.90;;;7.37;100.00;95515.66;10486179;28;2371;-72
2022/12/30 12:02:55;;;;;;;;;;;8.30;99.90;;;7.27;100.00;95511.06;10480721;28;2303;-73
2022/12/30 12:07:58;;;;;;;;;;;8.30;99.90;;;7.42;100.00;95507.66;10482526;28;2653;-72
2022/12/30 12:13:01;;;;;;;;;;;8.30;99.90;;;7.57;100.00;95492.50;10485991;28;2319;-73
2022/12/30 12:18:04;;;;;;;;;;;8.50;99.90;;;7.59;100.00;95482.34;10479732;28;2592;-73
2022/12/30 12:23:06;;;;;;;;;;;8.60;99.90;;;7.65;100.00;95477.00;10481052;28;2676;-73
2022/12/30 12:28:09;;;;;;;;;;;8.70;99.90;;;7.73;100.00;95481.84;10478588;28;2664;-72
2022/12/30 12:33:11;;;;;;;;;;;8.70;99.90;;;7.74;100.00;95478.91;10474225;28;2741;-74
2022/12/30 12:38:15;;;;;;;;;;;9.00;99.90;;;7.82;100.00;95475.75;10475051;28;2647;-76
2022/12/30 12:43:17;;;;;;;;;;;8.80;99.90;;;7.71;100.00;95481.31;10478378;28;4255;-73
2022/12/30 12:48:20;;;;;;;;;;;8.80;99.90;;;7.74;100.00;95488.81;10480030;28;2608;-74
2022/12/30 12:53:23;;;;;;;;;;;8.70;99.90;;;7.74;100.00;95481.56;10461867;28;2651;-74
2022/12/30 12:58:25;;;;;;;;;;;8.80;99.90;;;7.49;100.00;95501.00;10485090;28;2597;-72
2022/12/30 13:03:28;;;;;;;;;;;8.70;99.90;;;7.61;100.00;95489.28;10480082;28;2600;-75
2022/12/30 13:08:31;;;;;;;;;;;8.50;99.90;;;7.69;100.00;95486.09;10482996;28;2627;-74
2022/12/30 13:13:33;;;;;;;;;;;8.60;99.90;;;7.87;100.00;95474.94;10480730;28;2631;-74
2022/12/30 13:18:36;;;;;;;;;;;8.80;99.90;;;7.72;100.00;95480.25;10478760;28;2576;-74
2022/12/30 13:23:39;;;;;;;;;;;8.80;99.90;;;7.63;100.00;95473.78;10481625;28;2637;-75
2022/12/30 13:28:41;;;;;;;;;;;8.70;99.90;;;7.71;100.00;95470.63;10481995;28;2676;-74
2022/12/30 13:33:44;;;;;;;;;;;8.80;99.90;;;7.65;100.00;95463.63;10478190;28;2701;-75
2022/12/30 13:38:47;;;;;;;;;;;8.70;99.90;;;7.70;100.00;95460.94;10482198;28;2563;-76
2022/12/30 13:43:49;;;;;;;;;;;8.90;99.90;;;7.66;100.00;95459.88;10481904;28;4280;-75
2022/12/30 13:48:52;;;;;;;;;;;8.30;99.90;;;7.58;100.00;95453.97;10471059;28;2651;-76
2022/12/30 13:53:56;;;;;;;;;;;8.70;99.90;;;7.81;100.00;95435.84;10482491;28;2628;-73
2022/12/30 13:58:59;;;;;;;;;;;8.80;99.90;;;7.92;100.00;95442.03;10483337;28;2639;-73
2022/12/30 14:04:01;;;;;;;;;;;8.80;99.90;;;7.97;100.00;95434.03;10482575;28;2703;-72
2022/12/30 14:09:04;;;;;;;;;;;8.90;99.90;;;8.00;100.00;95439.63;10483135;28;2576;-72
2022/12/30 14:14:07;;;;;;;;;;;9.20;99.90;;;7.97;100.00;95423.31;10469564;28;2632;-75
2022/12/30 14:19:10;;;;;;;;;;;8.90;99.90;;;7.97;100.00;95424.13;10493386;28;2705;-74
2022/12/30 14:24:13;;;;;;;;;;;9.00;99.90;;;7.89;100.00;95434.53;10480432;28;2589;-74
2022/12/30 14:29:15;;;;;;;;;;;8.90;99.90;;;7.88;100.00;95427.56;10490112;28;2636;-74
2022/12/30 14:34:18;;;;;;;;;;;9.10;99.90;;;7.87;100.00;95429.44;10491063;28;2573;-74
2022/12/30 14:39:21;;;;;;;;;;;9.10;99.90;;;7.82;100.00;95416.03;10487109;28;2727;-74
2022/12/30 14:44:23;;;;;;;;;;;9.00;99.90;;;7.72;100.00;95394.63;10479596;28;4262;-74
2022/12/30 14:49:26;;;;;;;;;;;8.80;99.90;;;7.69;100.00;95389.78;10483689;28;2717;-73
2022/12/30 14:54:28;;;;;;;;;;;8.60;99.90;;;7.51;100.00;95378.53;10489205;28;2632;-74
2022/12/30 14:59:31;;;;;;;;;;;8.90;99.90;;;7.56;100.00;95373.19;10480927;28;2866;-73
2022/12/30 15:04:33;;;;;;;;;;;8.80;99.90;;;7.49;100.00;95374.50;10485416;28;2834;-73
2022/12/30 15:09:36;;;;;;;;;;;8.40;99.90;;;7.47;100.00;95372.09;10484837;28;2578;-72
2022/12/30 15:14:39;;;;;;;;;;;8.40;99.90;;;7.37;100.00;95376.59;10489663;28;2549;-72
2022/12/30 15:19:41;;;;;;;;;;;8.50;99.90;;;7.38;100.00;95372.84;10473271;28;2640;-73
2022/12/30 15:24:44;;;;;;;;;;;8.60;99.90;;;7.28;100.00;95370.97;10498558;28;2696;-72
2022/12/30 15:29:47;;;;;;;;;;;8.40;99.90;;;7.29;100.00;95369.91;10482211;28;2704;-75
2022/12/30 15:34:49;;;;;;;;;;;8.40;99.90;;;7.27;100.00;95358.69;10476069;28;2586;-73
2022/12/30 15:39:52;;;;;;;;;;;8.30;99.90;;;7.25;100.00;95353.59;10477842;28;2716;-74
2022/12/30 15:44:55;;;;;;;;;;;8.30;99.90;;;7.23;100.00;95349.56;10495685;28;4572;-72
2022/12/30 15:49:58;;;;;;;;;;;8.20;99.90;;;7.08;100.00;95353.00;10490660;28;2583;-73
2022/12/30 15:55:00;;;;;;;;;;;8.20;99.90;;;7.09;100.00;95365.28;10488322;28;2730;-76
2022/12/30 16:00:03;;;;;;;;;;;8.20;99.90;;;7.14;100.00;95359.97;10480764;28;2629;-77
2022/12/30 16:05:06;;;;;;;;;;;8.10;99.90;;;7.03;100.00;95369.00;10489012;28;2561;-78
2022/12/30 16:10:09;;;;;;;;;;;8.10;99.90;;;6.99;100.00;95367.91;10481381;28;2905;-76
2022/12/30 16:15:13;;;;;;;;;;;8.10;99.90;;;7.06;100.00;95376.47;10478719;28;2702;-72
2022/12/30 16:20:15;;;;;;;;;;;8.10;99.90;;;7.16;100.00;95399.78;10478821;28;2567;-73
2022/12/30 16:25:18;;;;;;;;;;;8.10;99.90;;;7.13;100.00;95408.34;10488162;28;2660;-75
2022/12/30 16:30:21;;;;;;;;;;;8.10;99.90;;;7.21;100.00;95416.66;10485950;28;2541;-74
2022/12/30 16:35:23;;;;;;;;;;;8.20;99.90;;;7.23;100.00;95456.50;10480644;28;2473;-75
2022/12/30 16:40:27;;;;;;;;;;;8.20;99.90;;;7.28;100.00;95481.38;10485864;28;4281;-75
2022/12/30 16:45:29;;;;;;;;;;;8.20;99.90;;;7.22;100.00;95485.09;10485536;28;2648;-76
2022/12/30 16:50:32;;;;;;;;;;;8.30;99.90;;;7.27;100.00;95500.38;10487213;28;2716;-77
2022/12/30 16:55:35;;;;;;;;;;;8.30;99.90;;;7.27;100.00;95487.00;10485565;28;2685;-76
2022/12/30 17:00:37;;;;;;;;;;;8.40;99.90;;;7.19;100.00;95487.47;10486407;28;2641;-73
2022/12/30 17:05:40;;;;;;;;;;;8.20;99.90;;;7.11;100.00;95475.41;10486407;28;2632;-71
2022/12/30 17:10:55;;;;;;;;;;;8.10;99.90;;;7.11;100.00;95487.97;10478738;28;2638;-73
2022/12/30 17:15:58;;;;;;;;;;;8.10;99.90;;;7.21;100.00;95480.81;10478144;28;2597;-72
2022/12/30 17:21:01;;;;;;;;;;;8.20;99.90;;;7.24;100.00;95482.97;10486053;28;2627;-71
2022/12/30 17:26:04;;;;;;;;;;;8.10;99.90;;;7.13;100.00;95497.34;10484880;28;2690;-70
2022/12/30 17:31:06;;;;;;;;;;;8.20;99.90;;;7.11;100.00;95522.72;10490021;28;2637;-71
2022/12/30 17:36:09;;;;;;;;;;;8.20;99.90;;;6.95;100.00;95524.50;10478372;28;2653;-71
2022/12/30 17:41:12;;;;;;;;;;;8.10;99.90;;;6.86;100.00;95520.66;10484415;28;4258;-70
2022/12/30 17:46:14;;;;;;;;;;;8.00;99.90;;;6.76;100.00;95526.75;10475252;28;2576;-72
2022/12/30 17:51:36;;;;;;;;;;;7.90;99.90;;;6.59;100.00;95534.88;10483809;28;8265;-70
2022/12/30 17:56:39;;;;;;;;;;;7.80;99.90;;;6.55;100.00;95540.97;10475489;28;8340;-73
2022/12/30 18:01:41;;;;;;;;;;;7.60;99.90;;;6.51;100.00;95546.03;10478814;28;7937;-74
2022/12/30 18:06:44;;;;;;;;;;;7.50;99.90;;;6.55;100.00;95551.66;10484568;28;8005;-74
2022/12/30 18:11:47;;;;;;;;;;;7.60;99.90;;;6.53;100.00;95548.44;10477996;28;2699;-75
2022/12/30 18:16:50;;;;;;;;;;;7.60;99.90;;;6.55;100.00;95555.13;10483144;28;5609;-77
2022/12/30 18:21:59;;;;;;;;;;;7.60;99.90;;;6.58;100.00;95543.16;10478791;28;2695;-76
2022/12/30 18:27:05;;;;;;;;;;;7.60;99.90;;;6.63;100.00;95551.22;10490776;28;2628;-74
2022/12/30 18:32:08;;;;;;;;;;;7.60;99.90;;;6.55;100.00;95536.44;10484423;28;7831;-75
2022/12/30 18:37:11;;;;;;;;;;;7.60;99.90;;;6.50;100.00;95539.91;10484897;28;2667;-75
2022/12/30 18:42:13;;;;;;;;;;;7.50;99.90;;;6.47;100.00;95534.25;10492174;28;2619;-74
2022/12/30 18:47:16;;;;;;;;;;;7.40;99.90;;;6.40;100.00;95536.31;10485526;28;2574;-71
2022/12/30 18:52:19;;;;;;;;;;;7.50;99.90;;;6.43;100.00;95523.28;10483148;28;2657;-74
2022/12/30 18:57:22;;;;;;;;;;;7.40;99.90;;;6.41;100.00;95514.69;10486009;28;2588;-72
2022/12/30 19:02:24;;;;;;;;;;;7.40;99.90;;;6.43;100.00;95511.78;10487129;28;2648;-72
2022/12/30 19:07:27;;;;;;;;;;;7.40;99.90;;;6.50;100.00;95509.72;10487468;28;8444;-72
2022/12/30 19:12:50;;;;;;;;;;;7.40;99.90;;;6.48;100.00;95515.28;10487467;28;3030;-71
2022/12/30 19:17:52;;;;;;;;;;;7.50;99.90;;;6.49;100.00;95516.94;10488029;28;2626;-73
2022/12/30 19:22:55;;;;;;;;;;;7.50;99.90;;;6.59;100.00;95515.38;10482240;28;2637;-71
2022/12/30 19:27:58;;;;;;;;;;;7.60;99.90;;;6.66;100.00;95506.09;10491420;28;2590;-71
2022/12/30 19:33:00;;;;;;;;;;;7.60;99.90;;;6.78;100.00;95511.25;10481208;28;2887;-72
2022/12/30 19:38:03;;;;;;;;;;;7.70;99.90;;;6.89;100.00;95518.31;10481464;28;2664;-71
2022/12/30 19:43:06;;;;;;;;;;;7.70;99.90;;;6.89;100.00;95504.94;10485018;28;2693;-73
2022/12/30 19:48:08;;;;;;;;;;;7.90;99.90;;;6.95;100.00;95509.25;10486409;28;2897;-72
2022/12/30 19:53:11;;;;;;;;;;;7.90;99.90;;;7.02;100.00;95493.81;10488590;28;2646;-75
2022/12/30 19:58:14;;;;;;;;;;;8.00;99.90;;;7.08;100.00;95488.50;10491588;28;2646;-73
2022/12/30 20:03:17;;;;;;;;;;;8.20;99.90;;;7.04;100.00;95497.00;10475958;28;2603;-71
2022/12/30 20:08:19;;;;;;;;;;;8.20;99.90;;;7.08;100.00;95502.66;10481687;28;2712;-71
2022/12/30 20:13:22;;;;;;;;;;;8.10;99.90;;;7.01;100.00;95497.53;10482582;28;2690;-71
2022/12/30 20:18:25;;;;;;;;;;;8.20;99.90;;;7.06;100.00;95504.78;10480595;28;2620;-72
2022/12/30 20:23:28;;;;;;;;;;;8.10;99.90;;;7.11;100.00;95506.69;10479992;28;2635;-72
2022/12/30 20:28:30;;;;;;;;;;;8.30;99.90;;;7.06;100.00;95534.16;10488447;28;2636;-71
2022/12/30 20:33:33;;;;;;;;;;;8.10;99.90;;;7.05;100.00;95527.22;10482407;28;2965;-71
2022/12/30 20:38:36;;;;;;;;;;;8.40;99.90;;;6.96;100.00;95528.78;10481981;28;2665;-73
2022/12/30 20:43:38;;;;;;;;;;;8.20;99.90;;;6.86;100.00;95516.13;10481549;28;2701;-75
2022/12/30 20:48:41;;;;;;;;;;;8.00;99.90;;;6.89;100.00;95536.22;10479170;28;2784;-72
2022/12/30 20:53:44;;;;;;;;;;;8.10;99.90;;;6.89;100.00;95534.34;10476000;28;2618;-72
2022/12/30 20:58:46;;;;;;;;;;;8.00;99.90;;;7.02;100.00;95536.56;10480463;28;2650;-71
2022/12/30 21:03:49;;;;;;;;;;;8.00;99.90;;;7.04;100.00;95529.09;10472240;28;2629;-72
2022/12/30 21:08:52;;;;;;;;;;;8.10;99.90;;;7.06;100.00;95526.16;10467450;28;6011;-71
2022/12/30 21:13:55;;;;;;;;;;;8.10;99.90;;;7.12;100.00;95532.34;10485308;28;2684;-73
2022/12/30 21:18:58;;;;;;;;;;;8.20;99.90;;;7.20;100.00;95529.22;10478429;28;2671;-71
2022/12/30 21:24:00;;;;;;;;;;;8.20;99.90;;;7.23;100.00;95524.13;10483495;28;2588;-71
2022/12/30 21:29:03;;;;;;;;;;;8.30;99.90;;;7.31;100.00;95531.66;10484321;28;2644;-72
2022/12/30 21:34:06;;;;;;;;;;;8.30;99.90;;;7.26;100.00;95536.19;10468141;28;2773;-72
2022/12/30 22:06:06;;;;;;;;;;;8.40;99.90;;;7.37;100.00;95575.28;10451169;28;6252;-76
2022/12/30 22:11:08;;;;;;;;;;;8.40;99.90;;;7.48;100.00;95582.31;10480027;28;2612;-73
2022/12/30 22:16:11;;;;;;;;;;;8.40;99.90;;;7.62;100.00;95576.50;10484066;28;2743;-72
2022/12/30 22:21:14;;;;;;;;;;;8.70;99.90;;;7.85;100.00;95563.50;10488365;28;2620;-71
2022/12/30 22:26:17;;;;;;;;;;;8.80;99.90;;;8.28;100.00;95574.13;10485339;28;2653;-72
2022/12/30 22:31:20;;;;;;;;;;;9.20;99.90;;;8.57;100.00;95583.31;10483635;28;2669;-72
2022/12/30 22:36:22;;;;;;;;;;;9.60;99.90;;;8.94;100.00;95577.72;10484156;28;2662;-72
2022/12/30 22:41:45;;;;;;;;;;;10.00;99.90;;;9.37;100.00;95591.66;10491980;28;3644;-71
2022/12/30 22:46:48;;;;;;;;;;;10.30;99.90;;;9.54;100.00;95607.44;10489191;28;2834;-71
2022/12/30 22:51:50;;;;;;;;;;;10.40;99.90;;;9.40;100.00;95603.72;10491674;28;2691;-72
2022/12/30 22:56:53;;;;;;;;;;;10.50;99.90;;;9.51;100.00;95617.94;10486518;28;2578;-72
2022/12/30 23:01:56;;;;;;;;;;;;;;;9.79;100.00;95620.03;10482008;28;2637;-71
2022/12/30 23:07:00;;;;;;;;;;;;;;;10.01;100.00;95628.56;10484718;28;6092;-71
2022/12/30 23:12:03;;;;;;;;;;;;;;;9.95;100.00;95618.91;10471528;28;2572;-71
2022/12/30 23:17:06;;;;;;;;;;;;;;;10.15;100.00;95623.41;10488936;28;2643;-71
2022/12/30 23:25:00;;;;;;;;;;;;;;;10.13;100.00;95639.00;10489918;28;2732;-70
2022/12/30 23:27:32;;;;;;;;;;;;;;;10.28;100.00;95635.47;10484778;28;2645;-71
2022/12/30 23:32:36;;;;;;;;;;;;;;;10.39;100.00;95638.94;10485363;28;2597;-70
2022/12/30 23:37:39;;;;;;;;;;;;;;;10.34;100.00;95645.13;10484518;28;2854;-71
2022/12/30 23:42:43;;;;;;;;;;;;;;;10.45;100.00;95652.09;10487699;28;2553;-71
2022/12/30 23:47:46;;;;;;;;;;;;;;;10.54;100.00;95655.00;10486587;28;2619;-72
2022/12/30 23:52:49;;;;;;;;;;;;;;;10.45;100.00;95654.78;10489664;28;2608;-71
2022/12/30 23:57:52;;;;;;;;;;;;;;;10.46;100.00;95648.31;10483688;28;2719;-71
